sensor_id;sensor_type;location;lat;lon;timestamp;pressure;altitude;pressure_sealevel;temperature;humidity
75972;BME280;64651;47.540;19.088;2024-02-16T00:04:54;101229.63;;;9.59;69.34
75972;BME280;64651;47.540;19.088;2024-02-16T00:09:57;101230.16;;;9.56;69.29
75972;BME280;64651;47.540;19.088;2024-02-16T00:14:59;101228.72;;;9.53;69.53
75972;BME280;64651;47.540;19.088;2024-02-16T00:20:02;101224.81;;;9.49;68.85
75972;BME280;64651;47.540;19.088;2024-02-16T00:25:05;101225.59;;;9.45;69.55
75972;BME280;64651;47.540;19.088;2024-02-16T00:30:08;101226.44;;;9.45;68.85
75972;BME280;64651;47.540;19.088;2024-02-16T00:35:12;101222.16;;;9.54;69.08
75972;BME280;64651;47.540;19.088;2024-02-16T00:40:14;101216.81;;;9.48;69.28
75972;BME280;64651;47.540;19.088;2024-02-16T00:45:17;101221.19;;;9.44;68.62
75972;BME280;64651;47.540;19.088;2024-02-16T00:50:19;101217.41;;;9.50;68.12
75972;BME280;64651;47.540;19.088;2024-02-16T00:55:21;101213.00;;;9.49;69.21
75972;BME280;64651;47.540;19.088;2024-02-16T01:00:23;101208.66;;;9.53;68.92
75972;BME280;64651;47.540;19.088;2024-02-16T01:05:26;101212.47;;;9.52;68.39
75972;BME280;64651;47.540;19.088;2024-02-16T01:10:28;101216.91;;;9.53;67.57
75972;BME280;64651;47.540;19.088;2024-02-16T01:15:30;101210.19;;;9.44;67.80
75972;BME280;64651;47.540;19.088;2024-02-16T01:20:33;101203.03;;;9.43;67.97
75972;BME280;64651;47.540;19.088;2024-02-16T01:25:35;101208.38;;;9.32;68.80
75972;BME280;64651;47.540;19.088;2024-02-16T01:30:38;101201.56;;;9.18;69.50
75972;BME280;64651;47.540;19.088;2024-02-16T01:35:41;101215.25;;;8.85;69.90
75972;BME280;64651;47.540;19.088;2024-02-16T01:40:43;101211.03;;;8.21;72.09
75972;BME280;64651;47.540;19.088;2024-02-16T01:45:45;101209.09;;;7.81;73.68
75972;BME280;64651;47.540;19.088;2024-02-16T01:50:48;101218.22;;;7.58;75.19
75972;BME280;64651;47.540;19.088;2024-02-16T01:55:51;101209.63;;;7.20;75.70
75972;BME280;64651;47.540;19.088;2024-02-16T02:00:53;101208.22;;;7.06;77.11
75972;BME280;64651;47.540;19.088;2024-02-16T02:05:56;101198.09;;;6.95;77.20
75972;BME280;64651;47.540;19.088;2024-02-16T02:10:59;101197.81;;;6.73;78.70
75972;BME280;64651;47.540;19.088;2024-02-16T02:16:02;101206.03;;;6.73;79.66
75972;BME280;64651;47.540;19.088;2024-02-16T02:21:05;101183.03;;;6.50;80.09
75972;BME280;64651;47.540;19.088;2024-02-16T02:26:07;101193.44;;;6.42;80.17
75972;BME280;64651;47.540;19.088;2024-02-16T02:31:09;101198.00;;;6.18;81.05
75972;BME280;64651;47.540;19.088;2024-02-16T02:36:12;101189.06;;;6.11;81.83
75972;BME280;64651;47.540;19.088;2024-02-16T02:41:16;101203.88;;;6.03;82.39
75972;BME280;64651;47.540;19.088;2024-02-16T02:46:19;101194.81;;;5.91;82.70
75972;BME280;64651;47.540;19.088;2024-02-16T02:51:21;101203.88;;;5.85;83.14
75972;BME280;64651;47.540;19.088;2024-02-16T02:56:23;101197.31;;;5.86;83.76
75972;BME280;64651;47.540;19.088;2024-02-16T03:01:26;101198.09;;;5.75;84.13
75972;BME280;64651;47.540;19.088;2024-02-16T03:06:28;101203.19;;;5.71;84.86
75972;BME280;64651;47.540;19.088;2024-02-16T03:11:30;101203.56;;;5.57;85.01
75972;BME280;64651;47.540;19.088;2024-02-16T03:16:33;101203.13;;;5.60;85.51
75972;BME280;64651;47.540;19.088;2024-02-16T03:21:35;101208.19;;;5.56;85.41
75972;BME280;64651;47.540;19.088;2024-02-16T03:26:38;101214.41;;;5.45;85.89
75972;BME280;64651;47.540;19.088;2024-02-16T03:31:41;101211.72;;;5.39;86.35
75972;BME280;64651;47.540;19.088;2024-02-16T03:36:43;101205.50;;;5.31;86.62
75972;BME280;64651;47.540;19.088;2024-02-16T03:41:46;101200.44;;;5.35;87.08
75972;BME280;64651;47.540;19.088;2024-02-16T03:46:50;101209.31;;;5.30;87.09
75972;BME280;64651;47.540;19.088;2024-02-16T03:51:56;101205.19;;;5.21;87.40
75972;BME280;64651;47.540;19.088;2024-02-16T03:56:58;101211.12;;;5.18;88.15
75972;BME280;64651;47.540;19.088;2024-02-16T04:02:01;101210.50;;;5.16;88.32
75972;BME280;64651;47.540;19.088;2024-02-16T04:07:03;101207.81;;;5.10;88.57
75972;BME280;64651;47.540;19.088;2024-02-16T04:12:06;101216.16;;;5.15;89.30
75972;BME280;64651;47.540;19.088;2024-02-16T04:17:08;101226.69;;;5.11;89.20
75972;BME280;64651;47.540;19.088;2024-02-16T04:22:11;101226.06;;;5.09;89.71
75972;BME280;64651;47.540;19.088;2024-02-16T04:27:26;101220.53;;;4.98;89.41
75972;BME280;64651;47.540;19.088;2024-02-16T04:50:08;101233.16;;;4.92;90.96
75972;BME280;64651;47.540;19.088;2024-02-16T04:55:12;101222.25;;;4.92;91.37
75972;BME280;64651;47.540;19.088;2024-02-16T05:00:15;101241.22;;;5.05;91.47
75972;BME280;64651;47.540;19.088;2024-02-16T05:05:18;101239.59;;;4.98;91.40
75972;BME280;64651;47.540;19.088;2024-02-16T05:10:20;101238.72;;;5.04;91.44
75972;BME280;64651;47.540;19.088;2024-02-16T05:15:23;101240.87;;;4.95;91.45
75972;BME280;64651;47.540;19.088;2024-02-16T05:20:26;101229.63;;;4.85;91.52
75972;BME280;64651;47.540;19.088;2024-02-16T05:25:28;101242.44;;;4.84;91.52
75972;BME280;64651;47.540;19.088;2024-02-16T05:30:30;101235.41;;;4.95;91.50
75972;BME280;64651;47.540;19.088;2024-02-16T05:35:33;101242.28;;;5.04;91.21
75972;BME280;64651;47.540;19.088;2024-02-16T05:40:36;101244.53;;;5.07;90.85
75972;BME280;64651;47.540;19.088;2024-02-16T05:45:57;101242.06;;;5.06;90.41
75972;BME280;64651;47.540;19.088;2024-02-16T05:51:00;101256.63;;;4.93;90.17
75972;BME280;64651;47.540;19.088;2024-02-16T05:56:04;101263.56;;;4.89;90.11
75972;BME280;64651;47.540;19.088;2024-02-16T06:01:07;101265.41;;;4.95;90.33
75972;BME280;64651;47.540;19.088;2024-02-16T06:06:12;101260.84;;;4.89;90.28
75972;BME280;64651;47.540;19.088;2024-02-16T06:11:14;101264.44;;;4.83;89.66
75972;BME280;64651;47.540;19.088;2024-02-16T06:16:17;101270.38;;;4.80;89.53
75972;BME280;64651;47.540;19.088;2024-02-16T06:21:19;101278.75;;;4.78;89.38
75972;BME280;64651;47.540;19.088;2024-02-16T06:26:22;101283.78;;;4.81;89.36
75972;BME280;64651;47.540;19.088;2024-02-16T06:31:24;101281.88;;;4.82;89.30
75972;BME280;64651;47.540;19.088;2024-02-16T06:36:26;101295.25;;;4.90;88.97
75972;BME280;64651;47.540;19.088;2024-02-16T06:41:29;101295.88;;;4.92;88.81
75972;BME280;64651;47.540;19.088;2024-02-16T06:46:45;101297.72;;;4.98;88.49
75972;BME280;64651;47.540;19.088;2024-02-16T06:51:49;101298.44;;;5.12;88.19
75972;BME280;64651;47.540;19.088;2024-02-16T06:56:54;101304.03;;;5.23;87.68
75972;BME280;64651;47.540;19.088;2024-02-16T07:01:57;101314.22;;;5.35;87.11
75972;BME280;64651;47.540;19.088;2024-02-16T07:06:59;101317.19;;;5.51;86.07
75972;BME280;64651;47.540;19.088;2024-02-16T07:12:07;101330.09;;;5.62;85.33
75972;BME280;64651;47.540;19.088;2024-02-16T07:17:15;101330.69;;;5.71;84.46
75972;BME280;64651;47.540;19.088;2024-02-16T07:22:17;101335.16;;;5.84;83.95
75972;BME280;64651;47.540;19.088;2024-02-16T07:27:19;101328.78;;;5.96;83.36
75972;BME280;64651;47.540;19.088;2024-02-16T07:32:23;101335.75;;;6.10;82.37
75972;BME280;64651;47.540;19.088;2024-02-16T07:37:26;101333.97;;;6.34;81.06
75972;BME280;64651;47.540;19.088;2024-02-16T07:42:29;101331.78;;;6.43;79.82
75972;BME280;64651;47.540;19.088;2024-02-16T07:47:32;101330.78;;;6.56;78.72
75972;BME280;64651;47.540;19.088;2024-02-16T07:52:35;101331.91;;;6.66;77.49
75972;BME280;64651;47.540;19.088;2024-02-16T07:57:37;101336.13;;;6.80;76.01
75972;BME280;64651;47.540;19.088;2024-02-16T08:02:40;101322.03;;;6.95;74.85
75972;BME280;64651;47.540;19.088;2024-02-16T08:07:46;101325.91;;;7.17;73.54
75972;BME280;64651;47.540;19.088;2024-02-16T08:12:49;101316.28;;;7.26;71.98
75972;BME280;64651;47.540;19.088;2024-02-16T08:17:53;101307.63;;;7.53;70.89
75972;BME280;64651;47.540;19.088;2024-02-16T08:22:56;101311.81;;;7.67;69.74
75972;BME280;64651;47.540;19.088;2024-02-16T08:28:00;101316.09;;;7.86;68.54
75972;BME280;64651;47.540;19.088;2024-02-16T08:33:02;101320.34;;;8.05;66.53
75972;BME280;64651;47.540;19.088;2024-02-16T08:38:05;101330.19;;;8.30;65.84
75972;BME280;64651;47.540;19.088;2024-02-16T08:43:13;101325.16;;;8.50;64.98
75972;BME280;64651;47.540;19.088;2024-02-16T08:48:15;101332.97;;;8.70;63.17
75972;BME280;64651;47.540;19.088;2024-02-16T08:53:19;101330.38;;;8.91;61.82
75972;BME280;64651;47.540;19.088;2024-02-16T08:58:24;101312.28;;;9.07;58.49
75972;BME280;64651;47.540;19.088;2024-02-16T09:03:28;101315.97;;;9.46;57.57
75972;BME280;64651;47.540;19.088;2024-02-16T09:08:30;101311.47;;;9.57;56.83
75972;BME280;64651;47.540;19.088;2024-02-16T09:13:35;101325.25;;;9.95;55.48
75972;BME280;64651;47.540;19.088;2024-02-16T09:18:43;101327.94;;;10.29;55.25
75972;BME280;64651;47.540;19.088;2024-02-16T09:23:46;101314.25;;;10.55;54.43
75972;BME280;64651;47.540;19.088;2024-02-16T09:28:49;101318.19;;;10.86;49.80
75972;BME280;64651;47.540;19.088;2024-02-16T09:33:53;101316.91;;;13.50;45.15
75972;BME280;64651;47.540;19.088;2024-02-16T09:50:35;101318.41;;;20.30;29.56
75972;BME280;64651;47.540;19.088;2024-02-16T10:01:04;101309.19;;;22.06;26.84
75972;BME280;64651;47.540;19.088;2024-02-16T10:12:18;101298.25;;;24.78;24.27
75972;BME280;64651;47.540;19.088;2024-02-16T10:17:23;101292.34;;;26.50;22.37
75972;BME280;64651;47.540;19.088;2024-02-16T10:22:50;101291.97;;;25.21;22.91
75972;BME280;64651;47.540;19.088;2024-02-16T10:28:13;101289.50;;;25.60;23.00
75972;BME280;64651;47.540;19.088;2024-02-16T10:33:17;101273.56;;;25.12;23.51
75972;BME280;64651;47.540;19.088;2024-02-16T10:38:24;101286.22;;;25.18;23.00
75972;BME280;64651;47.540;19.088;2024-02-16T10:43:35;101275.13;;;24.97;22.91
75972;BME280;64651;47.540;19.088;2024-02-16T10:54:14;101255.59;;;26.66;21.75
75972;BME280;64651;47.540;19.088;2024-02-16T10:59:18;101254.06;;;25.46;22.69
75972;BME280;64651;47.540;19.088;2024-02-16T11:04:39;101239.44;;;26.00;22.38
75972;BME280;64651;47.540;19.088;2024-02-16T11:09:46;101233.00;;;26.47;22.34
75972;BME280;64651;47.540;19.088;2024-02-16T11:14:51;101222.69;;;26.74;21.67
75972;BME280;64651;47.540;19.088;2024-02-16T11:20:01;101213.25;;;27.81;20.75
75972;BME280;64651;47.540;19.088;2024-02-16T11:25:06;101197.88;;;28.81;19.80
75972;BME280;64651;47.540;19.088;2024-02-16T11:30:14;101211.81;;;29.97;18.44
75972;BME280;64651;47.540;19.088;2024-02-16T11:35:16;101208.84;;;27.84;20.73
75972;BME280;64651;47.540;19.088;2024-02-16T11:40:19;101204.16;;;27.69;20.59
75972;BME280;64651;47.540;19.088;2024-02-16T11:45:21;101191.69;;;28.19;20.56
75972;BME280;64651;47.540;19.088;2024-02-16T11:50:26;101177.59;;;28.00;20.81
75972;BME280;64651;47.540;19.088;2024-02-16T11:55:32;101173.41;;;30.13;19.39
75972;BME280;64651;47.540;19.088;2024-02-16T12:00:39;101178.78;;;29.78;18.83
75972;BME280;64651;47.540;19.088;2024-02-16T12:05:50;101160.09;;;30.86;17.84
75972;BME280;64651;47.540;19.088;2024-02-16T12:10:59;101166.59;;;27.95;20.52
75972;BME280;64651;47.540;19.088;2024-02-16T12:16:02;101165.63;;;28.10;20.55
75972;BME280;64651;47.540;19.088;2024-02-16T12:21:09;101147.25;;;30.45;18.69
75972;BME280;64651;47.540;19.088;2024-02-16T12:26:19;101139.66;;;31.64;17.82
75972;BME280;64651;47.540;19.088;2024-02-16T12:31:23;101138.94;;;30.77;18.15
75972;BME280;64651;47.540;19.088;2024-02-16T12:36:27;101138.84;;;31.70;18.01
75972;BME280;64651;47.540;19.088;2024-02-16T12:41:34;101135.91;;;31.42;17.48
75972;BME280;64651;47.540;19.088;2024-02-16T12:46:40;101139.22;;;29.52;19.03
75972;BME280;64651;47.540;19.088;2024-02-16T12:51:46;101131.47;;;29.12;19.37
75972;BME280;64651;47.540;19.088;2024-02-16T12:56:48;101124.19;;;31.75;17.34
75972;BME280;64651;47.540;19.088;2024-02-16T13:01:51;101121.44;;;28.02;20.37
75972;BME280;64651;47.540;19.088;2024-02-16T13:06:54;101115.25;;;29.09;19.43
75972;BME280;64651;47.540;19.088;2024-02-16T13:11:56;101111.75;;;27.12;21.39
75972;BME280;64651;47.540;19.088;2024-02-16T13:16:59;101099.53;;;28.21;20.70
75972;BME280;64651;47.540;19.088;2024-02-16T13:22:02;101099.47;;;28.74;20.05
75972;BME280;64651;47.540;19.088;2024-02-16T13:27:04;101091.16;;;28.58;20.09
75972;BME280;64651;47.540;19.088;2024-02-16T13:32:09;101084.22;;;28.26;20.51
75972;BME280;64651;47.540;19.088;2024-02-16T13:37:13;101087.00;;;27.96;20.67
75972;BME280;64651;47.540;19.088;2024-02-16T13:42:18;101076.44;;;30.04;19.05
75972;BME280;64651;47.540;19.088;2024-02-16T13:47:24;101072.31;;;27.87;21.01
75972;BME280;64651;47.540;19.088;2024-02-16T13:52:27;101086.03;;;29.01;19.78
75972;BME280;64651;47.540;19.088;2024-02-16T13:57:50;101053.31;;;27.87;21.06
75972;BME280;64651;47.540;19.088;2024-02-16T14:02:52;101068.75;;;30.84;18.48
75972;BME280;64651;47.540;19.088;2024-02-16T14:08:17;101070.44;;;32.27;17.33
75972;BME280;64651;47.540;19.088;2024-02-16T14:13:23;101081.13;;;28.35;20.53
75972;BME280;64651;47.540;19.088;2024-02-16T14:18:27;101074.09;;;28.55;20.42
75972;BME280;64651;47.540;19.088;2024-02-16T14:23:38;101055.97;;;28.93;19.74
75972;BME280;64651;47.540;19.088;2024-02-16T14:28:44;101066.31;;;30.93;18.62
75972;BME280;64651;47.540;19.088;2024-02-16T14:33:49;101070.41;;;28.81;20.69
75972;BME280;64651;47.540;19.088;2024-02-16T14:38:51;101063.53;;;28.82;20.34
75972;BME280;64651;47.540;19.088;2024-02-16T14:43:56;101078.84;;;24.17;25.14
75972;BME280;64651;47.540;19.088;2024-02-16T14:49:02;101077.34;;;24.60;25.01
75972;BME280;64651;47.540;19.088;2024-02-16T14:54:05;101070.31;;;24.14;25.52
75972;BME280;64651;47.540;19.088;2024-02-16T14:59:10;101070.44;;;22.87;27.17
75972;BME280;64651;47.540;19.088;2024-02-16T15:04:13;101076.91;;;22.46;27.92
75972;BME280;64651;47.540;19.088;2024-02-16T15:09:18;101084.97;;;22.69;27.62
75972;BME280;64651;47.540;19.088;2024-02-16T15:14:20;101070.00;;;22.23;28.45
75972;BME280;64651;47.540;19.088;2024-02-16T15:19:22;101066.59;;;21.12;29.98
75972;BME280;64651;47.540;19.088;2024-02-16T15:24:25;101066.97;;;19.81;32.09
75972;BME280;64651;47.540;19.088;2024-02-16T15:29:30;101057.72;;;21.10;30.31
75972;BME280;64651;47.540;19.088;2024-02-16T15:34:32;101079.84;;;18.09;34.85
75972;BME280;64651;47.540;19.088;2024-02-16T15:39:37;101077.50;;;16.00;39.57
75972;BME280;64651;47.540;19.088;2024-02-16T15:44:43;101086.94;;;14.80;42.64
75972;BME280;64651;47.540;19.088;2024-02-16T15:49:45;101088.97;;;13.81;45.23
75972;BME280;64651;47.540;19.088;2024-02-16T15:54:47;101090.59;;;13.23;46.85
75972;BME280;64651;47.540;19.088;2024-02-16T15:59:52;101084.81;;;12.74;48.53
75972;BME280;64651;47.540;19.088;2024-02-16T16:04:54;101087.56;;;12.28;49.57
75972;BME280;64651;47.540;19.088;2024-02-16T16:09:57;101107.94;;;12.07;50.90
75972;BME280;64651;47.540;19.088;2024-02-16T16:14:59;101110.91;;;11.85;51.70
75972;BME280;64651;47.540;19.088;2024-02-16T16:20:02;101105.81;;;11.62;51.85
75972;BME280;64651;47.540;19.088;2024-02-16T16:25:05;101118.72;;;11.51;52.67
75972;BME280;64651;47.540;19.088;2024-02-16T16:30:08;101129.06;;;11.29;53.26
75972;BME280;64651;47.540;19.088;2024-02-16T16:35:10;101132.78;;;11.08;53.73
75972;BME280;64651;47.540;19.088;2024-02-16T16:40:13;101133.19;;;10.84;54.57
75972;BME280;64651;47.540;19.088;2024-02-16T16:45:16;101133.06;;;10.74;54.92
75972;BME280;64651;47.540;19.088;2024-02-16T16:50:18;101139.44;;;10.43;55.87
75972;BME280;64651;47.540;19.088;2024-02-16T16:55:26;101138.37;;;10.22;56.53
75972;BME280;64651;47.540;19.088;2024-02-16T17:00:29;101142.03;;;10.06;57.45
75972;BME280;64651;47.540;19.088;2024-02-16T17:05:31;101135.94;;;9.82;58.17
75972;BME280;64651;47.540;19.088;2024-02-16T17:10:33;101144.75;;;9.57;59.54
75972;BME280;64651;47.540;19.088;2024-02-16T17:15:36;101154.72;;;9.47;60.18
75972;BME280;64651;47.540;19.088;2024-02-16T17:20:38;101145.56;;;9.19;61.13
75972;BME280;64651;47.540;19.088;2024-02-16T17:25:42;101153.00;;;9.02;61.68
75972;BME280;64651;47.540;19.088;2024-02-16T17:30:45;101166.81;;;9.07;61.93
75972;BME280;64651;47.540;19.088;2024-02-16T17:35:48;101160.13;;;9.03;62.03
75972;BME280;64651;47.540;19.088;2024-02-16T17:40:51;101167.78;;;9.18;61.38
75972;BME280;64651;47.540;19.088;2024-02-16T17:45:53;101168.72;;;9.07;61.37
75972;BME280;64651;47.540;19.088;2024-02-16T17:50:55;101164.41;;;8.77;62.61
75972;BME280;64651;47.540;19.088;2024-02-16T17:55:57;101162.44;;;8.61;63.40
75972;BME280;64651;47.540;19.088;2024-02-16T18:01:00;101176.75;;;8.46;63.91
75972;BME280;64651;47.540;19.088;2024-02-16T18:06:02;101176.81;;;8.35;64.73
75972;BME280;64651;47.540;19.088;2024-02-16T18:11:05;101178.00;;;8.27;64.90
75972;BME280;64651;47.540;19.088;2024-02-16T18:16:07;101169.22;;;8.13;65.25
75972;BME280;64651;47.540;19.088;2024-02-16T18:21:10;101176.91;;;8.00;66.01
75972;BME280;64651;47.540;19.088;2024-02-16T18:26:15;101185.38;;;7.98;66.49
75972;BME280;64651;47.540;19.088;2024-02-16T18:31:17;101189.94;;;7.93;66.73
75972;BME280;64651;47.540;19.088;2024-02-16T18:36:19;101194.81;;;7.91;66.88
75972;BME280;64651;47.540;19.088;2024-02-16T18:41:21;101164.34;;;7.75;66.87
75972;BME280;64651;47.540;19.088;2024-02-16T18:46:25;101186.16;;;7.70;67.79
75972;BME280;64651;47.540;19.088;2024-02-16T18:51:27;101195.72;;;7.68;68.16
75972;BME280;64651;47.540;19.088;2024-02-16T18:56:29;101189.28;;;7.51;68.69
75972;BME280;64651;47.540;19.088;2024-02-16T19:01:31;101193.44;;;7.53;68.80
75972;BME280;64651;47.540;19.088;2024-02-16T19:06:37;101205.47;;;7.41;69.17
75972;BME280;64651;47.540;19.088;2024-02-16T19:11:39;101208.84;;;7.31;69.69
75972;BME280;64651;47.540;19.088;2024-02-16T19:16:42;101205.38;;;7.24;70.23
75972;BME280;64651;47.540;19.088;2024-02-16T19:21:44;101203.47;;;7.13;70.90
75972;BME280;64651;47.540;19.088;2024-02-16T19:26:47;101206.78;;;7.15;70.98
75972;BME280;64651;47.540;19.088;2024-02-16T19:31:49;101207.63;;;7.15;71.07
75972;BME280;64651;47.540;19.088;2024-02-16T19:36:51;101202.97;;;7.04;71.35
75972;BME280;64651;47.540;19.088;2024-02-16T19:41:53;101209.91;;;7.07;71.47
75972;BME280;64651;47.540;19.088;2024-02-16T19:46:56;101220.78;;;6.83;72.41
75972;BME280;64651;47.540;19.088;2024-02-16T19:51:58;101214.13;;;6.79;72.70
75972;BME280;64651;47.540;19.088;2024-02-16T19:57:01;101221.00;;;6.70;73.17
75972;BME280;64651;47.540;19.088;2024-02-16T20:02:03;101225.78;;;6.75;73.37
75972;BME280;64651;47.540;19.088;2024-02-16T20:07:13;101233.22;;;6.56;73.73
75972;BME280;64651;47.540;19.088;2024-02-16T20:12:16;101236.59;;;6.70;73.50
75972;BME280;64651;47.540;19.088;2024-02-16T20:17:18;101241.72;;;6.48;73.97
75972;BME280;64651;47.540;19.088;2024-02-16T20:22:20;101237.06;;;6.37;74.63
75972;BME280;64651;47.540;19.088;2024-02-16T20:27:26;101236.69;;;6.33;75.21
75972;BME280;64651;47.540;19.088;2024-02-16T20:32:28;101249.81;;;6.25;75.70
75972;BME280;64651;47.540;19.088;2024-02-16T20:37:33;101252.50;;;6.13;76.20
75972;BME280;64651;47.540;19.088;2024-02-16T20:42:35;101244.00;;;6.21;76.52
75972;BME280;64651;47.540;19.088;2024-02-16T20:47:38;101248.91;;;6.31;76.49
75972;BME280;64651;47.540;19.088;2024-02-16T20:52:43;101256.78;;;6.39;76.10
75972;BME280;64651;47.540;19.088;2024-02-16T20:57:45;101255.44;;;6.30;76.44
75972;BME280;64651;47.540;19.088;2024-02-16T21:02:48;101253.34;;;6.14;76.80
75972;BME280;64651;47.540;19.088;2024-02-16T21:07:51;101265.47;;;6.18;77.46
75972;BME280;64651;47.540;19.088;2024-02-16T21:12:54;101262.91;;;6.04;78.22
75972;BME280;64651;47.540;19.088;2024-02-16T21:17:57;101264.13;;;5.90;78.64
75972;BME280;64651;47.540;19.088;2024-02-16T21:23:03;101272.53;;;5.89;79.15
75972;BME280;64651;47.540;19.088;2024-02-16T21:28:05;101271.53;;;5.83;79.50
75972;BME280;64651;47.540;19.088;2024-02-16T21:33:10;101273.41;;;5.83;79.56
75972;BME280;64651;47.540;19.088;2024-02-16T21:38:14;101256.97;;;5.71;80.12
75972;BME280;64651;47.540;19.088;2024-02-16T21:43:19;101271.59;;;5.77;80.39
75972;BME280;64651;47.540;19.088;2024-02-16T21:48:21;101278.59;;;5.72;80.81
75972;BME280;64651;47.540;19.088;2024-02-16T21:53:36;101275.78;;;5.79;80.66
75972;BME280;64651;47.540;19.088;2024-02-16T21:58:39;101276.12;;;5.64;81.15
75972;BME280;64651;47.540;19.088;2024-02-16T22:03:47;101286.69;;;5.61;81.59
75972;BME280;64651;47.540;19.088;2024-02-16T22:08:54;101286.97;;;5.53;82.01
75972;BME280;64651;47.540;19.088;2024-02-16T22:13:56;101294.37;;;5.46;82.40
75972;BME280;64651;47.540;19.088;2024-02-16T22:18:58;101296.88;;;5.47;82.72
75972;BME280;64651;47.540;19.088;2024-02-16T22:24:01;101293.63;;;5.57;82.44
75972;BME280;64651;47.540;19.088;2024-02-16T22:29:03;101299.50;;;5.60;82.22
75972;BME280;64651;47.540;19.088;2024-02-16T22:34:05;101296.38;;;5.57;82.24
75972;BME280;64651;47.540;19.088;2024-02-16T22:39:08;101302.44;;;5.59;82.34
75972;BME280;64651;47.540;19.088;2024-02-16T22:44:11;101302.78;;;5.44;82.37
75972;BME280;64651;47.540;19.088;2024-02-16T22:49:13;101298.72;;;5.28;82.72
75972;BME280;64651;47.540;19.088;2024-02-16T22:54:16;101300.50;;;5.16;83.35
75972;BME280;64651;47.540;19.088;2024-02-16T22:59:22;101304.53;;;5.07;83.81
75972;BME280;64651;47.540;19.088;2024-02-16T23:04:24;101310.47;;;5.04;84.09
75972;BME280;64651;47.540;19.088;2024-02-16T23:09:26;101305.25;;;4.96;84.47
75972;BME280;64651;47.540;19.088;2024-02-16T23:14:29;101309.03;;;4.95;84.62
75972;BME280;64651;47.540;19.088;2024-02-16T23:19:33;101310.59;;;4.84;85.28
75972;BME280;64651;47.540;19.088;2024-02-16T23:24:36;101311.44;;;4.85;85.76
75972;BME280;64651;47.540;19.088;2024-02-16T23:29:38;101310.81;;;4.83;85.83
75972;BME280;64651;47.540;19.088;2024-02-16T23:34:40;101306.47;;;4.75;85.71
75972;BME280;64651;47.540;19.088;2024-02-16T23:39:43;101310.06;;;4.69;86.41
75972;BME280;64651;47.540;19.088;2024-02-16T23:44:45;101309.81;;;4.71;86.45
75972;BME280;64651;47.540;19.088;2024-02-16T23:49:48;101313.59;;;4.70;86.64
75972;BME280;64651;47.540;19.088;2024-02-16T23:54:50;101310.50;;;4.66;86.67
75972;BME280;64651;47.540;19.088;2024-02-16T23:59:52;101317.88;;;4.59;86.69
